INFORMACIÓN METAR y TAF
METAR FOR LELC
ADDS - METARS form results

(2344 UTC 04 July 2020)
Data provider http://aviationweather.gov/metar/data/
 
METAR text: LELC 042330Z AUTO 05007KT 020V080 9000 SCT013 23/21 Q1021
Conditions at: LELC (SAN JAVIER(MIL/C, ES) observed 2330 UTC 04 July 2020
Temperature: 23.0°C (73°F)
Dewpoint: 21.0°C (70°F) [RH = 89%]
Pressure (altimeter): 30.15 inches Hg (1021.0 mb)
Winds: from the NE (50 degrees) at 8 MPH (7 knots; 3.6 m/s)
Visibility: 6 miles ( 9 km)
Ceiling: at least 12,000 feet AGL
Clouds: scattered clouds at 1300 feet AGL
Weather: no significant weather observed at this time

METAR text: LELC 042300Z AUTO 04007KT 360V080 9999 FEW014 24/21 Q1021
Conditions at: LELC (SAN JAVIER(MIL/C, ES) observed 2300 UTC 04 July 2020
Temperature: 24.0°C (75°F)
Dewpoint: 21.0°C (70°F) [RH = 83%]
Pressure (altimeter): 30.15 inches Hg (1021.0 mb)
Winds: from the NE (40 degrees) at 8 MPH (7 knots; 3.6 m/s)
Visibility: 6 or more miles (10+ km)
Ceiling: at least 12,000 feet AGL
Clouds: few clouds at 1400 feet AGL
Weather: no significant weather observed at this time

Forecast for: LELC (SAN JAVIER(MIL/C, ES)
Text: TAF LELC 042300Z 0500/0524 03005KT CAVOK TX28/0513Z TN21/0505Z
Forecast period: 0000 to 1000 UTC 05 July 2020
Forecast type: FROM: standard forecast or significant change
Winds: from the NNE (30 degrees) at 6 MPH (5 knots; 2.6 m/s)
Visibility: 6 or more miles 10+ km)
Ceiling: unknown
Clouds: missing
Weather: no significant weather forecast for this period
Text: BECMG 0510/0512 11010KT
Forecast period: 1000 UTC 05 July 2020 to 0000 UTC 06 July 2020
Forecast type: BECOMING: Conditions expected to become as follows by 1200 UTC 05 July 2020
Winds: from the ESE (110 degrees) at 12 MPH (10 knots; 5.1 m/s)
Visibility: 6 or more miles 10+ km)
Ceiling: unknown
Clouds: missing
Weather: no significant weather forecast for this period

 MAPA DE AEROPUERTO

 INFORMACIÓN DE PISTA
Pista 05 Longitud 7546 ft Ancho 197 ft
Elevación 11 ft Umbral desplazado 0 ft Rumbo de pista 46
Pista 23 Longitud 7546 ft Ancho 197 ft
Elevación 5 ft Umbral desplazado 0 ft Rumbo de pista 226
Pista 05L Longitud 2867 ft Ancho 197 ft
Elevación 0 ft Umbral desplazado 0 ft Rumbo de pista 46
Pista 23R Longitud 2867 ft Ancho 197 ft
Elevación 0 ft Umbral desplazado 0 ft Rumbo de pista 226
Pista 14 Longitud 2625 ft Ancho 197 ft
Elevación 0 ft Umbral desplazado 0 ft Rumbo de pista 136
Pista 32 Longitud 2625 ft Ancho 197 ft
Elevación 0 ft Umbral desplazado 0 ft Rumbo de pista 316

 FRECUANCIAS DEL AEROPUERTO
Tipo APP Nombre SAN JAVIER Frecuencia 130.3 MHZ
Tipo GND Nombre SAN JAVIER Frecuencia 121.6 MHZ
Tipo TWR Nombre SAN JAVIER Frecuencia 130.3 MHZ

 RADIO AYUDAS DEL AEROPUERTO
Tipo NDB Nombre Murcia/San Javier Frecuencia 381 KHZ
Tipo NDB Nombre Murcia/San Javier Frecuencia 370 KHZ
Tipo TACAN Nombre Murcia/San Javier Frecuencia 113000 KHZ
Tipo VOR-DME Nombre Murcia/San Javier Frecuencia 113000 KHZ



Powered by Virtual Airlines Manager [v2.6.2]